Time;durP1;ratioP1;P1;durP2;ratioP2;P2;SDS_P1;SDS_P2;PMS_P1;PMS_P2;Temp;Humidity;BMP_temperature;BMP_pressure;BME280_temperature;BME280_humidity;BME280_pressure;Samples;Min_cycle;Max_cycle;Signal;HPM_P1;HPM_P2
2022/09/03 00:01:33;;;;;;;4.77;3.10;;;16.70;90.50;;;;;;6189010;23;20458;-45
2022/09/03 00:04:05;;;;;;;5.40;3.03;;;16.80;90.40;;;;;;6189343;23;20633;-47
2022/09/03 00:06:38;;;;;;;3.17;2.87;;;16.80;90.20;;;;;;6216333;23;20436;-49
2022/09/03 00:09:13;;;;;;;3.50;2.70;;;16.80;90.10;;;;;;6191327;23;20512;-46
2022/09/03 00:12:00;;;;;;;2.80;2.60;;;16.80;90.30;;;;;;6217785;23;20837;-45
2022/09/03 00:14:36;;;;;;;3.80;2.70;;;16.90;90.80;;;;;;6218549;23;20379;-49
2022/09/03 00:17:07;;;;;;;2.83;2.63;;;16.90;90.60;;;;;;6218599;23;20390;-46
2022/09/03 00:19:58;;;;;;;2.90;2.70;;;16.90;90.70;;;;;;6216892;23;20363;-47
2022/09/03 00:22:29;;;;;;;3.27;2.90;;;16.90;90.90;;;;;;6198429;23;20422;-46
2022/09/03 00:24:56;;;;;;;3.90;2.77;;;17.00;91.20;;;;;;6167234;23;20391;-46
2022/09/03 00:27:25;;;;;;;3.57;3.00;;;17.00;91.20;;;;;;6217312;23;20673;-50
2022/09/03 00:29:56;;;;;;;3.07;2.87;;;17.00;90.90;;;;;;6191584;23;20566;-49
2022/09/03 00:33:09;;;;;;;3.50;3.20;;;17.00;90.80;;;;;;6216756;23;20362;-49
2022/09/03 00:35:41;;;;;;;3.60;3.30;;;17.00;91.20;;;;;;6192292;23;20382;-46
2022/09/03 00:38:08;;;;;;;3.90;3.40;;;17.00;91.00;;;;;;6192384;23;20642;-47
2022/09/03 00:41:00;;;;;;;5.67;3.57;;;17.00;91.40;;;;;;6218728;23;20406;-49
2022/09/03 00:43:31;;;;;;;3.37;3.03;;;17.00;92.20;;;;;;6218146;23;20140;-47
2022/09/03 00:46:06;;;;;;;3.57;3.27;;;17.00;92.60;;;;;;6217482;23;20685;-48
2022/09/03 00:48:59;;;;;;;3.27;2.97;;;16.90;92.80;;;;;;6217131;23;20437;-46
2022/09/03 00:51:28;;;;;;;3.97;2.93;;;16.90;92.80;;;;;;6217427;23;20495;-46
2022/09/03 00:54:09;;;;;;;3.50;3.00;;;16.80;92.60;;;;;;6191978;23;20364;-46
2022/09/03 00:56:54;;;;;;;2.97;2.70;;;16.80;92.60;;;;;;6218651;23;20381;-50
2022/09/03 00:59:29;;;;;;;3.67;3.33;;;16.80;92.50;;;;;;6191971;23;20546;-47
2022/09/03 01:02:27;;;;;;;3.00;2.70;;;16.80;92.60;;;;;;6192972;23;20664;-46
2022/09/03 01:04:55;;;;;;;4.37;3.13;;;16.80;92.20;;;;;;6218910;23;20843;-46
2022/09/03 01:07:38;;;;;;;3.00;2.77;;;16.80;91.90;;;;;;6217711;23;20692;-45
2022/09/03 01:10:31;;;;;;;3.60;2.80;;;16.80;91.50;;;;;;6190556;23;20423;-46
2022/09/03 01:13:11;;;;;;;2.50;2.30;;;16.80;91.40;;;;;;6189669;23;20520;-46
2022/09/03 01:16:02;;;;;;;3.93;3.30;;;16.80;91.30;;;;;;6216870;23;20380;-46
2022/09/03 01:19:00;;;;;;;2.97;2.70;;;16.80;91.30;;;;;;6217235;23;20377;-45
2022/09/03 01:21:45;;;;;;;4.37;2.60;;;16.80;91.50;;;;;;6218454;23;20360;-49
2022/09/03 01:24:17;;;;;;;4.17;2.53;;;16.80;91.40;;;;;;6217575;23;20396;-45
2022/09/03 01:27:02;;;;;;;3.30;3.10;;;16.80;91.20;;;;;;6216497;23;20645;-45
2022/09/03 01:29:36;;;;;;;5.53;2.80;;;16.80;90.90;;;;;;6216638;23;20402;-45
2022/09/03 01:32:22;;;;;;;2.87;2.60;;;16.80;91.10;;;;;;6215733;23;20363;-44
2022/09/03 01:35:07;;;;;;;2.90;2.70;;;16.80;90.80;;;;;;6216907;23;20362;-46
2022/09/03 01:37:32;;;;;;;3.20;2.90;;;16.90;90.60;;;;;;6217183;23;20381;-45
2022/09/03 01:40:04;;;;;;;3.13;2.83;;;16.90;90.70;;;;;;6191098;23;20383;-47
2022/09/03 01:42:53;;;;;;;2.80;2.50;;;16.80;91.10;;;;;;6218521;23;20159;-47
2022/09/03 01:45:33;;;;;;;2.53;2.33;;;16.80;91.70;;;;;;6218485;23;20411;-45
2022/09/03 01:48:20;;;;;;;2.90;2.60;;;16.80;92.00;;;;;;6191495;23;20398;-47
2022/09/03 01:51:18;;;;;;;3.83;2.57;;;16.70;92.10;;;;;;6217079;23;20676;-48
2022/09/03 01:53:56;;;;;;;3.00;2.70;;;16.70;91.80;;;;;;6196889;23;20386;-47
2022/09/03 01:56:56;;;;;;;3.60;2.20;;;16.70;91.70;;;;;;6191955;23;20360;-49
2022/09/03 01:59:54;;;;;;;2.90;2.40;;;16.60;91.60;;;;;;6216343;23;20649;-47
2022/09/03 02:02:22;;;;;;;4.03;2.50;;;16.60;91.80;;;;;;6217425;23;20405;-46
2022/09/03 02:05:06;;;;;;;3.53;3.23;;;16.60;92.10;;;;;;6217616;23;20351;-47
2022/09/03 02:07:34;;;;;;;3.97;3.30;;;16.60;92.20;;;;;;6217598;23;20373;-49
2022/09/03 02:10:02;;;;;;;4.10;3.30;;;16.60;92.20;;;;;;6218062;23;20460;-49
2022/09/03 02:12:33;;;;;;;3.13;2.83;;;16.60;92.20;;;;;;6217276;23;20426;-47
2022/09/03 02:15:02;;;;;;;3.73;3.23;;;16.60;91.80;;;;;;6216840;23;20762;-48
2022/09/03 02:17:29;;;;;;;3.03;2.73;;;16.60;91.80;;;;;;6191753;23;20699;-51
2022/09/03 02:19:55;;;;;;;3.13;2.80;;;16.60;91.90;;;;;;6217615;23;20363;-46
2022/09/03 02:22:21;;;;;;;3.10;2.80;;;16.60;91.70;;;;;;6191047;23;20421;-45
2022/09/03 02:24:46;;;;;;;3.03;2.83;;;16.60;91.80;;;;;;6217109;23;20656;-43
2022/09/03 02:27:12;;;;;;;2.73;2.53;;;16.60;91.60;;;;;;6216793;23;20166;-45
2022/09/03 02:29:38;;;;;;;3.60;3.07;;;16.60;91.70;;;;;;6192212;23;20167;-44
2022/09/03 02:32:04;;;;;;;2.70;2.50;;;16.50;91.60;;;;;;6191929;23;20393;-50
2022/09/03 02:34:29;;;;;;;3.90;3.10;;;16.60;91.50;;;;;;6218396;23;20280;-46
2022/09/03 02:36:55;;;;;;;3.27;3.03;;;16.60;91.60;;;;;;6191181;23;20146;-46
2022/09/03 02:39:20;;;;;;;4.07;2.40;;;16.60;91.60;;;;;;6217246;23;20143;-45
2022/09/03 02:41:53;;;;;;;3.80;3.50;;;16.50;91.70;;;;;;6216722;23;20147;-45
2022/09/03 02:44:30;;;;;;;3.80;3.20;;;16.50;92.00;;;;;;6191883;23;20147;-48
2022/09/03 02:47:02;;;;;;;3.33;3.03;;;16.50;92.20;;;;;;6192253;23;20768;-47
2022/09/03 02:49:28;;;;;;;3.30;3.00;;;16.50;92.40;;;;;;6218232;23;20495;-43
2022/09/03 02:52:05;;;;;;;3.43;3.13;;;16.40;92.50;;;;;;6216799;23;20355;-49
2022/09/03 02:54:35;;;;;;;3.50;3.20;;;16.40;92.70;;;;;;6191594;23;20743;-46
2022/09/03 02:57:01;;;;;;;3.30;3.10;;;16.40;92.80;;;;;;6216153;23;20405;-45
2022/09/03 02:59:29;;;;;;;3.20;3.00;;;16.40;93.00;;;;;;6216591;23;20373;-44
2022/09/03 03:01:55;;;;;;;3.53;3.23;;;16.40;93.10;;;;;;6216501;23;20758;-45
2022/09/03 03:04:21;;;;;;;4.83;4.23;;;16.40;93.30;;;;;;6215583;23;20458;-48
2022/09/03 03:06:49;;;;;;;4.30;3.13;;;16.30;93.30;;;;;;6188252;23;20236;-46
2022/09/03 03:09:15;;;;;;;4.83;3.10;;;16.30;93.40;;;;;;6215480;23;20795;-44
2022/09/03 03:11:41;;;;;;;3.90;3.60;;;16.30;93.60;;;;;;6216188;23;20482;-46
2022/09/03 03:14:06;;;;;;;3.77;3.47;;;16.30;93.90;;;;;;6216272;23;20382;-46
2022/09/03 03:16:32;;;;;;;3.67;3.37;;;16.30;94.10;;;;;;6218353;23;20136;-45
2022/09/03 03:18:59;;;;;;;4.43;4.03;;;16.20;94.20;;;;;;6218819;23;20161;-47
2022/09/03 03:21:24;;;;;;;3.67;3.43;;;16.20;94.40;;;;;;6219073;23;20497;-45
2022/09/03 03:23:50;;;;;;;4.80;4.10;;;16.20;94.60;;;;;;6218702;23;20385;-49
2022/09/03 03:26:18;;;;;;;3.63;3.33;;;16.20;94.70;;;;;;6218898;23;20224;-47
2022/09/03 03:28:45;;;;;;;4.17;3.87;;;16.20;94.90;;;;;;6218523;23;20175;-46
2022/09/03 03:31:15;;;;;;;5.20;4.40;;;16.20;95.10;;;;;;6192835;23;20397;-45
2022/09/03 03:33:41;;;;;;;4.47;4.10;;;16.20;95.10;;;;;;6218802;23;20381;-44
2022/09/03 03:36:10;;;;;;;4.83;4.43;;;16.20;95.20;;;;;;6218013;23;20413;-48
2022/09/03 03:38:36;;;;;;;4.73;4.43;;;16.20;95.30;;;;;;6219159;23;20440;-46
2022/09/03 03:41:20;;;;;;;4.50;4.10;;;16.10;95.30;;;;;;6219320;23;20752;-48
2022/09/03 03:43:47;;;;;;;4.43;4.13;;;16.10;95.40;;;;;;6218846;23;20478;-46
2022/09/03 03:46:13;;;;;;;6.03;4.17;;;16.10;95.50;;;;;;6167873;23;20383;-46
2022/09/03 03:48:40;;;;;;;4.43;4.10;;;16.10;95.70;;;;;;6218506;23;20731;-48
2022/09/03 03:51:07;;;;;;;4.97;4.40;;;16.10;95.90;;;;;;6217851;23;20440;-45
2022/09/03 03:53:34;;;;;;;4.60;4.20;;;16.00;96.00;;;;;;6218539;23;20660;-46
2022/09/03 03:56:02;;;;;;;4.93;4.17;;;16.00;96.10;;;;;;6216301;23;20660;-50
2022/09/03 03:58:30;;;;;;;4.80;4.40;;;16.00;96.30;;;;;;6215566;23;20488;-45
2022/09/03 04:01:13;;;;;;;4.60;4.20;;;16.00;96.40;;;;;;6216891;23;20765;-47
2022/09/03 04:03:39;;;;;;;5.10;4.70;;;16.00;96.60;;;;;;6217316;23;20866;-48
2022/09/03 04:06:05;;;;;;;5.97;4.40;;;16.00;96.70;;;;;;6217811;23;20367;-49
2022/09/03 04:08:35;;;;;;;5.03;4.67;;;16.00;96.70;;;;;;6216555;23;20436;-44
2022/09/03 04:11:02;;;;;;;4.73;4.33;;;16.10;96.70;;;;;;6214217;23;20364;-49
2022/09/03 04:13:32;;;;;;;4.80;4.40;;;16.00;96.70;;;;;;6186338;23;20459;-47
2022/09/03 04:16:05;;;;;;;4.43;4.13;;;16.10;96.80;;;;;;6212727;23;20763;-48
2022/09/03 04:18:32;;;;;;;5.73;5.23;;;16.10;96.80;;;;;;6213835;23;20450;-48
2022/09/03 04:21:13;;;;;;;5.17;4.77;;;16.10;96.80;;;;;;6213310;23;20382;-49
2022/09/03 04:23:40;;;;;;;5.00;4.60;;;16.10;96.90;;;;;;6213729;23;20855;-47
2022/09/03 04:26:07;;;;;;;5.43;4.93;;;16.10;96.90;;;;;;6215677;23;20374;-45
2022/09/03 04:28:33;;;;;;;5.10;4.70;;;16.20;97.10;;;;;;6217729;23;20507;-46
2022/09/03 04:31:03;;;;;;;6.47;5.97;;;16.20;97.10;;;;;;6217329;23;20423;-46
2022/09/03 04:33:30;;;;;;;5.57;5.07;;;16.20;97.30;;;;;;6218468;23;20784;-45
2022/09/03 04:36:22;;;;;;;5.80;5.30;;;16.20;97.50;;;;;;6217594;23;20367;-46
2022/09/03 04:38:50;;;;;;;6.20;5.60;;;16.30;97.50;;;;;;6211266;23;20409;-44
2022/09/03 04:41:18;;;;;;;5.53;5.13;;;16.30;97.80;;;;;;6216834;23;20386;-44
2022/09/03 04:43:44;;;;;;;5.27;4.77;;;16.30;97.90;;;;;;6216903;23;20455;-45
2022/09/03 04:46:12;;;;;;;6.20;5.60;;;16.30;98.10;;;;;;6216621;23;20445;-48
2022/09/03 04:48:37;;;;;;;6.40;5.83;;;16.30;98.10;;;;;;6217246;23;20427;-45
2022/09/03 04:51:09;;;;;;;5.80;5.40;;;16.30;98.20;;;;;;6218062;23;20371;-46
2022/09/03 04:53:36;;;;;;;5.57;5.13;;;16.30;98.30;;;;;;6218203;23;20156;-45
2022/09/03 04:56:03;;;;;;;5.70;5.30;;;16.30;98.30;;;;;;6216673;23;20375;-45
2022/09/03 04:58:29;;;;;;;6.43;5.87;;;16.40;98.50;;;;;;6218836;23;20714;-47
2022/09/03 05:00:55;;;;;;;7.33;6.63;;;16.40;98.70;;;;;;6218868;23;20459;-46
2022/09/03 05:03:21;;;;;;;6.07;5.53;;;16.40;98.80;;;;;;6217772;23;20400;-45
2022/09/03 05:05:56;;;;;;;6.00;5.50;;;16.40;98.80;;;;;;6218334;23;20510;-47
2022/09/03 05:08:22;;;;;;;7.43;6.70;;;16.50;98.90;;;;;;6219045;23;20588;-45
2022/09/03 05:10:48;;;;;;;7.07;6.57;;;16.60;99.00;;;;;;6219875;23;20383;-46
2022/09/03 05:13:14;;;;;;;6.90;6.40;;;16.70;98.80;;;;;;6218188;23;20465;-47
2022/09/03 05:15:42;;;;;;;7.30;6.60;;;16.70;98.70;;;;;;6218809;23;20388;-47
2022/09/03 05:18:07;;;;;;;7.27;6.57;;;16.70;98.80;;;;;;6218318;23;20168;-45
2022/09/03 05:20:33;;;;;;;6.40;5.80;;;16.70;98.80;;;;;;6217786;23;20387;-45
2022/09/03 05:23:02;;;;;;;6.30;5.70;;;16.60;98.80;;;;;;6215311;23;20142;-49
2022/09/03 05:25:31;;;;;;;6.13;5.63;;;16.70;99.00;;;;;;6214908;23;20158;-46
2022/09/03 05:27:57;;;;;;;6.30;5.90;;;16.60;99.10;;;;;;6215496;23;20366;-48
2022/09/03 05:30:23;;;;;;;6.53;5.93;;;16.70;99.10;;;;;;6212916;23;20439;-50
2022/09/03 05:32:49;;;;;;;6.83;6.33;;;16.70;99.10;;;;;;6213555;23;20372;-46
2022/09/03 05:35:15;;;;;;;6.20;5.70;;;16.80;99.10;;;;;;6213290;23;20832;-46
2022/09/03 05:37:41;;;;;;;7.00;6.47;;;16.80;99.00;;;;;;6213027;23;20136;-45
2022/09/03 05:40:10;;;;;;;6.03;5.53;;;16.80;99.20;;;;;;6214064;23;20816;-45
2022/09/03 05:42:39;;;;;;;6.93;6.33;;;16.80;99.20;;;;;;6214969;23;20136;-45
2022/09/03 05:45:09;;;;;;;8.00;6.70;;;16.90;99.30;;;;;;6215820;23;20785;-47
2022/09/03 05:47:36;;;;;;;6.73;6.23;;;16.90;99.40;;;;;;6216079;23;20629;-44
2022/09/03 05:50:02;;;;;;;6.40;5.90;;;17.00;99.20;;;;;;6216257;23;20429;-45
2022/09/03 05:52:28;;;;;;;6.33;5.83;;;17.10;99.10;;;;;;6215347;23;20581;-47
2022/09/03 05:54:53;;;;;;;6.57;5.97;;;17.10;99.10;;;;;;6214632;23;20368;-44
2022/09/03 05:57:20;;;;;;;5.80;5.40;;;17.10;99.10;;;;;;6214803;23;20546;-45
2022/09/03 05:59:46;;;;;;;6.40;5.93;;;17.10;99.10;;;;;;6216746;23;20160;-48
2022/09/03 06:02:11;;;;;;;6.73;6.13;;;17.10;99.20;;;;;;6217843;23;20364;-48
2022/09/03 06:04:37;;;;;;;8.13;6.10;;;17.20;99.60;;;;;;6217435;23;20785;-46
2022/09/03 06:07:03;;;;;;;6.20;5.63;;;17.20;99.30;;;;;;6217221;23;20145;-49
2022/09/03 06:09:29;;;;;;;6.90;6.30;;;17.20;99.20;;;;;;6216363;23;20180;-46
2022/09/03 06:11:55;;;;;;;8.80;6.17;;;17.30;99.40;;;;;;6191149;23;20446;-46
2022/09/03 06:14:21;;;;;;;6.30;5.80;;;17.30;99.20;;;;;;6217531;23;20147;-47
2022/09/03 06:16:48;;;;;;;6.37;5.87;;;17.40;99.30;;;;;;6215881;23;20148;-46
2022/09/03 06:19:15;;;;;;;8.00;5.90;;;17.40;99.30;;;;;;6215728;23;20405;-46
2022/09/03 06:21:42;;;;;;;6.60;6.10;;;17.50;99.40;;;;;;6218143;23;20386;-47
2022/09/03 06:24:10;;;;;;;6.60;6.00;;;17.60;99.40;;;;;;6217727;23;20374;-46
2022/09/03 06:26:36;;;;;;;6.97;6.37;;;17.60;99.50;;;;;;6217261;23;20803;-46
2022/09/03 06:29:02;;;;;;;7.03;6.43;;;17.60;99.40;;;;;;6216508;23;20728;-45
2022/09/03 06:31:28;;;;;;;6.40;5.87;;;17.70;99.50;;;;;;6217216;23;20640;-48
2022/09/03 06:33:54;;;;;;;7.07;6.37;;;17.80;99.40;;;;;;6215999;23;20144;-45
2022/09/03 06:36:21;;;;;;;6.87;6.30;;;17.80;99.20;;;;;;6217146;23;20228;-46
2022/09/03 06:38:50;;;;;;;7.27;6.57;;;17.80;99.10;;;;;;6216566;23;20368;-48
2022/09/03 06:41:23;;;;;;;7.83;7.13;;;17.80;99.20;;;;;;6215981;23;20828;-47
2022/09/03 06:43:50;;;;;;;6.60;6.10;;;17.90;99.10;;;;;;6216212;23;20361;-48
2022/09/03 06:46:18;;;;;;;5.73;5.33;;;17.90;99.20;;;;;;6213977;23;20397;-47
2022/09/03 06:48:45;;;;;;;6.93;6.03;;;18.00;99.40;;;;;;6215441;23;20410;-45
2022/09/03 06:51:13;;;;;;;6.70;6.20;;;18.10;99.40;;;;;;6215114;23;20386;-47
2022/09/03 06:53:40;;;;;;;6.83;6.23;;;18.20;99.20;;;;;;6215987;23;20355;-47
2022/09/03 06:56:08;;;;;;;6.77;6.27;;;18.30;99.10;;;;;;6216470;23;20394;-45
2022/09/03 06:58:36;;;;;;;6.47;5.97;;;18.40;98.90;;;;;;6217648;23;20749;-47
2022/09/03 07:01:06;;;;;;;6.80;6.20;;;18.50;98.60;;;;;;6215695;23;20393;-47
2022/09/03 07:03:36;;;;;;;7.60;6.57;;;18.60;97.90;;;;;;6215888;23;20369;-49
2022/09/03 07:06:07;;;;;;;6.23;5.73;;;18.70;97.60;;;;;;6216547;23;20389;-47
2022/09/03 07:08:33;;;;;;;5.90;5.47;;;18.70;97.40;;;;;;6215432;23;20521;-46
2022/09/03 07:11:02;;;;;;;7.20;5.50;;;18.80;97.40;;;;;;6217103;23;20447;-46
2022/09/03 07:13:28;;;;;;;5.93;5.43;;;18.70;97.50;;;;;;6217003;23;20349;-45
2022/09/03 07:16:01;;;;;;;6.47;5.90;;;18.80;97.50;;;;;;6215010;23;20362;-47
2022/09/03 07:18:27;;;;;;;6.80;6.13;;;18.90;97.50;;;;;;6215332;23;20463;-48
2022/09/03 07:20:58;;;;;;;5.70;5.20;;;19.10;97.30;;;;;;6216233;23;20447;-47
2022/09/03 07:23:24;;;;;;;5.90;5.40;;;19.30;97.30;;;;;;6214580;23;20164;-46
2022/09/03 07:25:57;;;;;;;5.67;5.17;;;19.40;96.40;;;;;;6216881;23;20509;-48
2022/09/03 07:28:23;;;;;;;5.97;5.47;;;19.40;96.40;;;;;;6191222;23;20215;-45
2022/09/03 07:30:50;;;;;;;5.20;4.77;;;19.50;96.10;;;;;;6217398;23;20433;-48
2022/09/03 07:33:16;;;;;;;6.27;5.70;;;19.60;95.90;;;;;;6218002;23;20758;-46
2022/09/03 07:35:42;;;;;;;6.00;5.40;;;19.60;95.80;;;;;;6216500;23;20485;-45
2022/09/03 07:38:08;;;;;;;5.40;5.00;;;19.40;95.90;;;;;;6215329;23;20442;-45
2022/09/03 07:40:33;;;;;;;6.03;5.57;;;19.40;96.20;;;;;;6189578;23;20675;-46
2022/09/03 07:43:03;;;;;;;5.57;5.10;;;19.40;96.40;;;;;;6214775;23;20441;-49
2022/09/03 07:45:29;;;;;;;6.10;5.60;;;19.40;96.20;;;;;;6214947;23;20132;-47
2022/09/03 07:47:55;;;;;;;5.80;5.23;;;19.40;95.90;;;;;;6214794;23;20385;-45
2022/09/03 07:50:20;;;;;;;5.53;5.03;;;19.50;96.10;;;;;;6215186;23;20407;-46
2022/09/03 07:52:46;;;;;;;4.97;4.57;;;19.70;95.90;;;;;;6217546;23;20388;-48
2022/09/03 07:55:12;;;;;;;5.60;5.20;;;19.90;96.00;;;;;;6191023;23;20148;-49
2022/09/03 07:57:38;;;;;;;5.03;4.63;;;20.20;95.80;;;;;;6189409;23;20153;-48
2022/09/03 08:00:08;;;;;;;7.00;6.40;;;20.60;95.40;;;;;;6166513;23;20402;-48
2022/09/03 08:02:34;;;;;;;6.00;5.50;;;20.90;94.30;;;;;;6216558;23;20361;-47
2022/09/03 08:04:59;;;;;;;5.23;4.83;;;21.20;93.90;;;;;;6217389;23;20392;-49
2022/09/03 08:07:27;;;;;;;5.33;4.93;;;21.50;93.90;;;;;;6217418;23;20157;-46
2022/09/03 08:09:53;;;;;;;4.87;4.37;;;21.90;93.20;;;;;;6218483;23;20501;-49
2022/09/03 08:12:19;;;;;;;6.20;5.70;;;22.10;92.30;;;;;;6214858;23;20432;-48
2022/09/03 08:14:44;;;;;;;5.10;4.60;;;22.50;91.70;;;;;;6216149;23;20609;-49
2022/09/03 08:17:11;;;;;;;4.93;4.53;;;22.50;91.30;;;;;;6215173;23;20135;-47
2022/09/03 08:19:37;;;;;;;4.93;4.53;;;22.90;90.50;;;;;;6214785;23;20154;-48
2022/09/03 08:22:02;;;;;;;5.77;5.27;;;23.10;90.20;;;;;;6187203;23;20811;-47
2022/09/03 08:24:28;;;;;;;5.10;4.70;;;22.60;90.40;;;;;;6215540;23;20568;-49
2022/09/03 08:26:53;;;;;;;4.83;4.43;;;22.80;90.30;;;;;;6189295;23;20563;-47
2022/09/03 08:29:20;;;;;;;5.77;5.27;;;23.40;90.50;;;;;;6217711;23;20179;-47
2022/09/03 08:31:45;;;;;;;4.53;4.23;;;23.70;88.20;;;;;;6217718;23;20186;-48
2022/09/03 08:34:13;;;;;;;4.97;4.57;;;24.00;87.30;;;;;;6217286;23;20388;-46
2022/09/03 08:36:40;;;;;;;5.23;4.83;;;24.00;86.30;;;;;;6218602;23;20169;-51
2022/09/03 08:39:08;;;;;;;4.17;3.77;;;24.10;86.20;;;;;;6165534;23;20405;-45
2022/09/03 08:41:56;;;;;;;4.83;4.43;;;24.30;86.30;;;;;;6191468;23;20399;-47
2022/09/03 08:44:34;;;;;;;4.50;4.20;;;24.70;85.10;;;;;;6215818;23;20358;-46
2022/09/03 08:47:08;;;;;;;4.77;4.27;;;25.10;81.90;;;;;;6216242;23;20386;-48
2022/09/03 08:50:01;;;;;;;5.40;4.90;;;25.00;81.20;;;;;;6215799;23;20408;-47
2022/09/03 08:52:36;;;;;;;3.77;3.47;;;24.80;80.30;;;;;;6188115;23;20738;-48
2022/09/03 08:55:17;;;;;;;4.00;3.70;;;24.30;80.90;;;;;;6214837;23;20356;-49
2022/09/03 08:57:47;;;;;;;3.97;3.67;;;23.80;81.30;;;;;;6215838;23;20373;-45
2022/09/03 09:00:13;;;;;;;4.53;4.00;;;22.80;83.90;;;;;;6215053;23;20395;-48
2022/09/03 09:02:48;;;;;;;4.10;3.80;;;22.50;85.60;;;;;;6213764;23;20369;-48
2022/09/03 09:05:21;;;;;;;4.90;4.50;;;22.60;85.60;;;;;;6214470;23;20442;-46
2022/09/03 09:08:01;;;;;;;4.10;3.80;;;22.50;85.70;;;;;;6188978;23;20720;-48
2022/09/03 09:10:27;;;;;;;4.47;4.07;;;22.90;86.80;;;;;;6215880;23;20457;-44
2022/09/03 09:13:21;;;;;;;4.37;4.07;;;23.20;84.90;;;;;;6213899;23;20699;-47
2022/09/03 09:15:50;;;;;;;4.53;4.23;;;23.30;84.90;;;;;;6188072;23;20143;-46
2022/09/03 09:18:29;;;;;;;4.07;3.77;;;23.10;85.00;;;;;;6212243;23;20464;-46
2022/09/03 09:21:16;;;;;;;4.20;3.80;;;23.10;85.40;;;;;;6183910;23;20624;-47
2022/09/03 09:23:49;;;;;;;4.47;4.03;;;22.80;86.20;;;;;;6212676;23;20676;-47
2022/09/03 09:26:17;;;;;;;4.50;4.10;;;23.10;85.80;;;;;;6211591;23;20466;-46
2022/09/03 09:28:45;;;;;;;4.30;3.90;;;23.40;85.30;;;;;;6213409;23;20485;-47
2022/09/03 09:31:14;;;;;;;4.70;4.30;;;23.80;84.50;;;;;;6211659;23;20361;-48
2022/09/03 09:33:41;;;;;;;5.03;4.17;;;24.50;82.80;;;;;;6212861;23;20379;-47
2022/09/03 09:36:14;;;;;;;4.50;4.10;;;24.90;80.60;;;;;;6213092;23;20364;-46
2022/09/03 09:38:40;;;;;;;3.77;3.47;;;25.70;80.30;;;;;;6212922;23;20378;-50
2022/09/03 09:41:22;;;;;;;4.27;3.87;;;26.30;74.50;;;;;;6212546;23;20378;-45
2022/09/03 09:44:02;;;;;;;4.27;3.97;;;26.40;73.10;;;;;;6214031;23;20436;-48
2022/09/03 09:46:39;;;;;;;4.40;4.10;;;26.30;71.70;;;;;;6211762;23;20400;-47
2022/09/03 09:49:29;;;;;;;3.87;3.57;;;26.00;70.60;;;;;;6214871;23;20704;-46
2022/09/03 09:52:03;;;;;;;4.90;4.47;;;25.80;71.50;;;;;;6214493;23;20364;-48
2022/09/03 09:54:28;;;;;;;3.97;3.67;;;25.50;72.10;;;;;;6213795;23;20669;-49
2022/09/03 09:56:59;;;;;;;3.80;3.47;;;25.20;73.10;;;;;;6216831;23;20350;-47
2022/09/03 09:59:25;;;;;;;4.50;4.10;;;25.00;74.00;;;;;;6214340;23;20540;-49
2022/09/03 10:01:50;;;;;;;4.10;3.70;;;25.00;74.00;;;;;;6214133;23;20447;-47
2022/09/03 10:04:26;;;;;;;4.13;3.83;;;25.00;74.70;;;;;;6189077;23;20219;-46
2022/09/03 10:07:14;;;;;;;4.50;4.10;;;24.90;75.30;;;;;;6189489;23;20195;-49
2022/09/03 10:09:40;;;;;;;4.90;4.50;;;25.00;75.30;;;;;;6214942;23;20415;-46
2022/09/03 10:12:13;;;;;;;4.97;4.57;;;25.20;74.30;;;;;;6215325;23;20440;-49
2022/09/03 10:14:46;;;;;;;4.50;4.10;;;25.20;74.30;;;;;;6213155;23;20212;-48
2022/09/03 10:17:21;;;;;;;5.10;4.60;;;25.10;74.80;;;;;;6187963;23;20354;-49
2022/09/03 10:20:29;;;;;;;4.37;4.03;;;25.10;74.10;;;;;;6213283;23;20386;-45
2022/09/03 10:23:05;;;;;;;5.03;4.67;;;25.70;74.10;;;;;;6212550;23;20404;-48
2022/09/03 10:25:52;;;;;;;5.67;4.53;;;27.00;70.40;;;;;;6184035;23;20659;-50
2022/09/03 10:28:19;;;;;;;5.43;4.20;;;27.80;67.20;;;;;;6186073;23;20361;-47
2022/09/03 10:31:22;;;;;;;4.93;4.53;;;28.10;65.40;;;;;;6213613;23;20456;-50
2022/09/03 10:34:02;;;;;;;5.03;4.63;;;28.20;62.80;;;;;;6213349;23;20352;-50
2022/09/03 10:36:43;;;;;;;4.57;4.27;;;27.20;64.70;;;;;;6211367;23;20386;-47
2022/09/03 10:39:47;;;;;;;5.80;5.00;;;27.60;64.40;;;;;;6185509;23;20516;-50
2022/09/03 10:42:33;;;;;;;5.63;5.10;;;27.70;65.10;;;;;;6137741;23;20355;-50
2022/09/03 10:45:17;;;;;;;4.83;4.43;;;27.80;64.80;;;;;;6214209;23;20382;-46
2022/09/03 10:47:55;;;;;;;5.30;4.80;;;27.80;65.80;;;;;;6212513;23;20427;-47
2022/09/03 10:50:53;;;;;;;5.17;4.70;;;27.80;65.80;;;;;;6211262;23;20672;-47
2022/09/03 10:53:38;;;;;;;4.80;4.30;;;27.80;65.70;;;;;;6184145;23;20379;-47
2022/09/03 10:56:12;;;;;;;4.57;4.27;;;27.80;65.40;;;;;;6184986;23;20472;-48
2022/09/03 10:58:51;;;;;;;4.50;4.20;;;27.70;65.40;;;;;;6213570;23;20410;-46
2022/09/03 11:01:46;;;;;;;4.83;4.43;;;27.50;65.30;;;;;;6189801;23;20340;-49
2022/09/03 11:04:36;;;;;;;4.33;4.03;;;27.30;66.10;;;;;;6215469;23;20341;-47
2022/09/03 11:07:08;;;;;;;5.10;4.70;;;27.00;67.60;;;;;;6214790;23;20395;-48
2022/09/03 11:09:57;;;;;;;5.13;4.83;;;26.70;68.10;;;;;;6214477;23;20459;-48
2022/09/03 11:12:30;;;;;;;5.90;5.40;;;26.40;68.70;;;;;;6186588;23;20429;-49
2022/09/03 11:15:13;;;;;;;4.80;4.40;;;26.20;67.90;;;;;;6163846;23;20369;-49
2022/09/03 11:17:46;;;;;;;4.57;4.17;;;25.70;70.50;;;;;;6211701;23;20392;-46
2022/09/03 11:20:20;;;;;;;4.93;4.53;;;25.50;71.80;;;;;;6188320;23;20369;-50
2022/09/03 11:22:48;;;;;;;6.00;5.10;;;25.40;72.90;;;;;;6214738;23;20400;-48
2022/09/03 11:25:16;;;;;;;4.80;4.47;;;25.20;73.60;;;;;;6185275;23;20362;-47
2022/09/03 11:27:41;;;;;;;4.97;4.47;;;24.90;74.90;;;;;;6184626;23;20431;-48
2022/09/03 11:30:36;;;;;;;5.10;4.80;;;24.80;75.20;;;;;;6212205;23;20405;-47
2022/09/03 11:33:08;;;;;;;5.50;5.00;;;24.60;75.40;;;;;;6212397;23;20184;-53
2022/09/03 11:35:33;;;;;;;5.13;4.70;;;24.40;75.00;;;;;;6187607;23;20395;-46
2022/09/03 11:38:22;;;;;;;5.80;5.20;;;24.10;77.30;;;;;;6213480;23;20626;-49
2022/09/03 11:40:59;;;;;;;5.03;4.63;;;23.80;80.40;;;;;;6190641;23;20544;-47
2022/09/03 11:43:32;;;;;;;5.87;5.40;;;23.60;83.80;;;;;;6219660;23;20393;-46
2022/09/03 11:46:20;;;;;;;6.23;5.57;;;23.40;85.90;;;;;;6217230;23;20446;-47
2022/09/03 11:48:50;;;;;;;6.43;5.37;;;23.20;87.20;;;;;;6215050;23;20410;-47
2022/09/03 11:51:36;;;;;;;5.57;5.10;;;23.00;88.60;;;;;;6188776;23;20742;-46
2022/09/03 11:54:22;;;;;;;6.73;6.13;;;22.70;90.30;;;;;;6214528;23;20397;-46
2022/09/03 11:56:49;;;;;;;5.60;5.20;;;22.40;92.00;;;;;;6213665;23;20360;-47
2022/09/03 11:59:25;;;;;;;6.17;5.70;;;22.10;92.90;;;;;;6188476;23;20368;-45
2022/09/03 12:02:11;;;;;;;5.30;4.90;;;21.60;93.80;;;;;;6189496;23;20659;-45
2022/09/03 12:04:56;;;;;;;5.10;4.40;;;20.90;95.20;;;;;;6215792;23;20854;-46
2022/09/03 12:07:49;;;;;;;4.63;3.73;;;19.90;96.90;;;;;;6188411;23;20490;-46
2022/09/03 12:10:53;;;;;;;3.77;3.47;;;19.50;98.40;;;;;;6214678;23;20405;-44
2022/09/03 12:13:45;;;;;;;3.73;3.37;;;18.80;99.50;;;;;;6215649;23;20406;-44
2022/09/03 12:16:53;;;;;;;3.50;3.20;;;18.30;99.90;;;;;;6209807;23;20468;-46
2022/09/03 12:19:31;;;;;;;4.07;2.67;;;17.90;99.90;;;;;;6196821;23;20390;-44
2022/09/03 12:21:56;;;;;;;4.47;2.43;;;17.50;99.90;;;;;;6190466;23;20424;-45
2022/09/03 12:24:27;;;;;;;3.30;2.53;;;17.50;99.90;;;;;;6215387;23;20628;-44
2022/09/03 12:26:55;;;;;;;3.63;2.13;;;17.40;99.90;;;;;;6214991;23;20144;-44
2022/09/03 12:29:26;;;;;;;3.90;2.30;;;17.20;99.90;;;;;;6190574;23;20402;-43
2022/09/03 12:31:55;;;;;;;3.90;2.30;;;17.10;99.90;;;;;;6191693;23;20349;-43
2022/09/03 12:34:21;;;;;;;6.27;2.60;;;17.10;99.90;;;;;;6217662;23;20689;-44
2022/09/03 12:36:50;;;;;;;4.20;2.60;;;17.20;99.90;;;;;;6192058;23;20365;-43
2022/09/03 12:39:23;;;;;;;5.93;3.03;;;17.30;99.90;;;;;;6215494;23;20356;-44
2022/09/03 12:42:02;;;;;;;2.77;2.43;;;17.40;99.90;;;;;;6191734;23;20359;-44
2022/09/03 12:44:35;;;;;;;4.73;2.37;;;17.50;99.90;;;;;;6218107;23;20359;-44
2022/09/03 12:47:16;;;;;;;4.27;2.43;;;17.60;99.90;;;;;;6219244;23;20452;-42
2022/09/03 12:49:43;;;;;;;5.80;2.10;;;17.80;99.90;;;;;;6217917;23;20401;-43
2022/09/03 12:52:31;;;;;;;4.83;2.70;;;17.90;99.90;;;;;;6217133;23;20783;-42
2022/09/03 12:55:16;;;;;;;3.10;2.30;;;18.10;99.90;;;;;;6215543;23;20420;-45
2022/09/03 12:57:47;;;;;;;3.13;1.80;;;18.20;99.90;;;;;;6214075;23;20424;-44
2022/09/03 13:00:15;;;;;;;3.37;2.00;;;18.30;99.90;;;;;;6216378;23;20363;-49
2022/09/03 13:02:55;;;;;;;3.53;1.90;;;18.20;99.50;;;;;;6188813;23;20383;-43
2022/09/03 13:05:34;;;;;;;2.60;1.80;;;18.30;99.50;;;;;;6187300;23;20717;-45
2022/09/03 13:08:02;;;;;;;2.97;2.00;;;18.50;99.10;;;;;;6214710;23;20416;-45
2022/09/03 13:10:31;;;;;;;7.33;2.20;;;18.70;98.70;;;;;;6216169;23;20406;-44
2022/09/03 13:13:02;;;;;;;3.00;1.50;;;18.90;98.30;;;;;;6216640;23;20757;-43
2022/09/03 13:15:29;;;;;;;2.10;1.60;;;19.00;98.50;;;;;;6189194;23;20417;-45
2022/09/03 13:18:01;;;;;;;2.60;1.97;;;19.20;99.00;;;;;;6215269;23;20386;-43